sensor_id;sensor_type;location;lat;lon;timestamp;P1;durP1;ratioP1;P2;durP2;ratioP2
52158;SDS011;38145;53.182;6.284;2023-04-25T00:00:31;21.00;;;4.43;;
52158;SDS011;38145;53.182;6.284;2023-04-25T00:02:57;27.10;;;4.47;;
52158;SDS011;38145;53.182;6.284;2023-04-25T00:05:25;24.10;;;4.10;;
52158;SDS011;38145;53.182;6.284;2023-04-25T00:07:52;21.77;;;5.32;;
52158;SDS011;38145;53.182;6.284;2023-04-25T00:10:18;18.92;;;4.20;;
52158;SDS011;38145;53.182;6.284;2023-04-25T00:12:45;29.52;;;5.10;;
52158;SDS011;38145;53.182;6.284;2023-04-25T00:15:11;22.48;;;4.22;;
52158;SDS011;38145;53.182;6.284;2023-04-25T00:17:37;23.58;;;4.45;;
52158;SDS011;38145;53.182;6.284;2023-04-25T00:20:03;26.60;;;4.03;;
52158;SDS011;38145;53.182;6.284;2023-04-25T00:22:30;22.58;;;5.93;;
52158;SDS011;38145;53.182;6.284;2023-04-25T00:24:56;19.80;;;3.35;;
52158;SDS011;38145;53.182;6.284;2023-04-25T00:27:25;20.08;;;4.75;;
52158;SDS011;38145;53.182;6.284;2023-04-25T00:29:51;18.30;;;4.05;;
52158;SDS011;38145;53.182;6.284;2023-04-25T00:32:17;22.33;;;3.83;;
52158;SDS011;38145;53.182;6.284;2023-04-25T00:34:43;16.17;;;3.78;;
52158;SDS011;38145;53.182;6.284;2023-04-25T00:37:09;21.40;;;3.55;;
52158;SDS011;38145;53.182;6.284;2023-04-25T00:39:35;15.80;;;3.50;;
52158;SDS011;38145;53.182;6.284;2023-04-25T00:42:01;17.45;;;4.03;;
52158;SDS011;38145;53.182;6.284;2023-04-25T00:44:29;15.95;;;3.28;;
52158;SDS011;38145;53.182;6.284;2023-04-25T00:46:57;15.88;;;3.90;;
52158;SDS011;38145;53.182;6.284;2023-04-25T00:49:23;15.07;;;3.13;;
52158;SDS011;38145;53.182;6.284;2023-04-25T00:51:49;15.50;;;2.83;;
52158;SDS011;38145;53.182;6.284;2023-04-25T00:54:15;13.85;;;4.00;;
52158;SDS011;38145;53.182;6.284;2023-04-25T00:56:41;22.95;;;3.97;;
52158;SDS011;38145;53.182;6.284;2023-04-25T00:59:08;21.00;;;4.63;;
52158;SDS011;38145;53.182;6.284;2023-04-25T01:01:35;22.98;;;3.72;;
52158;SDS011;38145;53.182;6.284;2023-04-25T01:04:01;14.07;;;3.85;;
52158;SDS011;38145;53.182;6.284;2023-04-25T01:06:27;20.00;;;3.50;;
52158;SDS011;38145;53.182;6.284;2023-04-25T01:08:53;22.85;;;3.22;;
52158;SDS011;38145;53.182;6.284;2023-04-25T01:11:19;17.73;;;3.80;;
52158;SDS011;38145;53.182;6.284;2023-04-25T01:13:45;15.80;;;2.75;;
52158;SDS011;38145;53.182;6.284;2023-04-25T01:16:11;24.75;;;4.38;;
52158;SDS011;38145;53.182;6.284;2023-04-25T01:18:38;14.43;;;3.45;;
52158;SDS011;38145;53.182;6.284;2023-04-25T01:21:07;23.10;;;3.55;;
52158;SDS011;38145;53.182;6.284;2023-04-25T01:23:35;14.23;;;3.40;;
52158;SDS011;38145;53.182;6.284;2023-04-25T01:26:01;25.67;;;4.47;;
52158;SDS011;38145;53.182;6.284;2023-04-25T01:28:28;19.42;;;3.72;;
52158;SDS011;38145;53.182;6.284;2023-04-25T01:30:54;16.83;;;3.10;;
52158;SDS011;38145;53.182;6.284;2023-04-25T01:33:22;17.08;;;3.60;;
52158;SDS011;38145;53.182;6.284;2023-04-25T01:35:48;17.00;;;2.53;;
52158;SDS011;38145;53.182;6.284;2023-04-25T01:38:14;13.75;;;3.05;;
52158;SDS011;38145;53.182;6.284;2023-04-25T01:40:40;19.35;;;3.72;;
52158;SDS011;38145;53.182;6.284;2023-04-25T01:43:07;20.88;;;4.80;;
52158;SDS011;38145;53.182;6.284;2023-04-25T01:45:36;14.43;;;3.95;;
52158;SDS011;38145;53.182;6.284;2023-04-25T01:48:07;16.10;;;2.83;;
52158;SDS011;38145;53.182;6.284;2023-04-25T01:50:33;16.30;;;3.00;;
52158;SDS011;38145;53.182;6.284;2023-04-25T01:52:59;14.18;;;3.15;;
52158;SDS011;38145;53.182;6.284;2023-04-25T01:55:27;22.70;;;2.97;;
52158;SDS011;38145;53.182;6.284;2023-04-25T01:57:53;21.67;;;3.47;;
52158;SDS011;38145;53.182;6.284;2023-04-25T02:00:19;15.90;;;2.83;;
52158;SDS011;38145;53.182;6.284;2023-04-25T02:02:45;14.35;;;3.28;;
52158;SDS011;38145;53.182;6.284;2023-04-25T02:05:11;21.52;;;4.60;;
52158;SDS011;38145;53.182;6.284;2023-04-25T02:07:37;16.33;;;4.05;;
52158;SDS011;38145;53.182;6.284;2023-04-25T02:10:03;14.25;;;3.20;;
52158;SDS011;38145;53.182;6.284;2023-04-25T02:12:30;19.42;;;2.50;;
52158;SDS011;38145;53.182;6.284;2023-04-25T02:14:56;20.80;;;2.97;;
52158;SDS011;38145;53.182;6.284;2023-04-25T02:17:22;13.98;;;3.08;;
52158;SDS011;38145;53.182;6.284;2023-04-25T02:19:48;15.90;;;2.83;;
52158;SDS011;38145;53.182;6.284;2023-04-25T02:22:15;21.80;;;3.38;;
52158;SDS011;38145;53.182;6.284;2023-04-25T02:24:41;19.70;;;3.70;;
52158;SDS011;38145;53.182;6.284;2023-04-25T02:27:07;17.33;;;2.97;;
52158;SDS011;38145;53.182;6.284;2023-04-25T02:29:32;19.13;;;3.75;;
52158;SDS011;38145;53.182;6.284;2023-04-25T02:31:58;12.35;;;2.70;;
52158;SDS011;38145;53.182;6.284;2023-04-25T02:34:24;16.15;;;2.67;;
52158;SDS011;38145;53.182;6.284;2023-04-25T02:36:50;10.10;;;3.00;;
52158;SDS011;38145;53.182;6.284;2023-04-25T02:39:16;13.73;;;3.38;;
52158;SDS011;38145;53.182;6.284;2023-04-25T02:41:42;14.95;;;3.63;;
52158;SDS011;38145;53.182;6.284;2023-04-25T02:44:08;18.92;;;2.72;;
52158;SDS011;38145;53.182;6.284;2023-04-25T02:46:34;16.92;;;2.63;;
52158;SDS011;38145;53.182;6.284;2023-04-25T02:49:00;12.63;;;2.70;;
52158;SDS011;38145;53.182;6.284;2023-04-25T02:51:26;16.65;;;2.65;;
52158;SDS011;38145;53.182;6.284;2023-04-25T02:53:52;10.60;;;3.03;;
52158;SDS011;38145;53.182;6.284;2023-04-25T02:56:18;14.40;;;2.55;;
52158;SDS011;38145;53.182;6.284;2023-04-25T02:58:44;10.52;;;2.30;;
52158;SDS011;38145;53.182;6.284;2023-04-25T03:01:10;17.05;;;2.90;;
52158;SDS011;38145;53.182;6.284;2023-04-25T03:03:37;13.27;;;2.53;;
52158;SDS011;38145;53.182;6.284;2023-04-25T03:06:03;16.55;;;2.95;;
52158;SDS011;38145;53.182;6.284;2023-04-25T03:08:29;18.27;;;2.70;;
52158;SDS011;38145;53.182;6.284;2023-04-25T03:10:57;13.18;;;2.33;;
52158;SDS011;38145;53.182;6.284;2023-04-25T03:13:24;14.02;;;2.50;;
52158;SDS011;38145;53.182;6.284;2023-04-25T03:15:50;5.85;;;1.98;;
52158;SDS011;38145;53.182;6.284;2023-04-25T03:18:16;12.93;;;3.55;;
52158;SDS011;38145;53.182;6.284;2023-04-25T03:20:41;9.32;;;2.60;;
52158;SDS011;38145;53.182;6.284;2023-04-25T03:23:08;8.50;;;1.92;;
52158;SDS011;38145;53.182;6.284;2023-04-25T03:25:33;17.75;;;2.60;;
52158;SDS011;38145;53.182;6.284;2023-04-25T03:28:00;13.90;;;3.20;;
52158;SDS011;38145;53.182;6.284;2023-04-25T03:30:25;7.60;;;2.13;;
52158;SDS011;38145;53.182;6.284;2023-04-25T03:32:51;11.43;;;2.40;;
52158;SDS011;38145;53.182;6.284;2023-04-25T03:35:17;10.65;;;2.40;;
52158;SDS011;38145;53.182;6.284;2023-04-25T03:37:43;21.42;;;2.63;;
52158;SDS011;38145;53.182;6.284;2023-04-25T03:40:10;17.10;;;2.60;;
52158;SDS011;38145;53.182;6.284;2023-04-25T03:42:36;15.88;;;3.67;;
52158;SDS011;38145;53.182;6.284;2023-04-25T03:45:02;8.80;;;2.72;;
52158;SDS011;38145;53.182;6.284;2023-04-25T03:47:28;12.93;;;1.95;;
52158;SDS011;38145;53.182;6.284;2023-04-25T03:49:54;9.38;;;2.50;;
52158;SDS011;38145;53.182;6.284;2023-04-25T03:52:20;14.57;;;2.05;;
52158;SDS011;38145;53.182;6.284;2023-04-25T03:54:46;19.98;;;3.78;;
52158;SDS011;38145;53.182;6.284;2023-04-25T03:57:12;11.75;;;2.58;;
52158;SDS011;38145;53.182;6.284;2023-04-25T03:59:38;9.05;;;1.90;;
52158;SDS011;38145;53.182;6.284;2023-04-25T04:02:03;12.27;;;2.83;;
52158;SDS011;38145;53.182;6.284;2023-04-25T04:04:29;14.85;;;2.55;;
52158;SDS011;38145;53.182;6.284;2023-04-25T04:06:55;11.80;;;2.53;;
52158;SDS011;38145;53.182;6.284;2023-04-25T04:09:21;16.23;;;3.53;;
52158;SDS011;38145;53.182;6.284;2023-04-25T04:11:47;13.98;;;2.47;;
52158;SDS011;38145;53.182;6.284;2023-04-25T04:14:13;10.18;;;2.05;;
52158;SDS011;38145;53.182;6.284;2023-04-25T04:16:38;11.60;;;2.33;;
52158;SDS011;38145;53.182;6.284;2023-04-25T04:19:05;14.05;;;2.40;;
52158;SDS011;38145;53.182;6.284;2023-04-25T04:21:31;11.45;;;2.42;;
52158;SDS011;38145;53.182;6.284;2023-04-25T04:23:57;10.80;;;2.60;;
52158;SDS011;38145;53.182;6.284;2023-04-25T04:28:51;9.95;;;2.28;;
52158;SDS011;38145;53.182;6.284;2023-04-25T04:33:45;9.88;;;3.13;;
52158;SDS011;38145;53.182;6.284;2023-04-25T04:36:11;14.18;;;2.35;;
52158;SDS011;38145;53.182;6.284;2023-04-25T04:38:38;12.93;;;2.40;;
52158;SDS011;38145;53.182;6.284;2023-04-25T04:41:05;12.63;;;3.00;;
52158;SDS011;38145;53.182;6.284;2023-04-25T04:43:31;12.75;;;2.83;;
52158;SDS011;38145;53.182;6.284;2023-04-25T04:46:00;19.50;;;3.00;;
52158;SDS011;38145;53.182;6.284;2023-04-25T04:48:26;14.30;;;2.42;;
52158;SDS011;38145;53.182;6.284;2023-04-25T04:50:53;13.83;;;3.07;;
52158;SDS011;38145;53.182;6.284;2023-04-25T04:53:19;10.75;;;2.72;;
52158;SDS011;38145;53.182;6.284;2023-04-25T04:55:45;10.57;;;2.55;;
52158;SDS011;38145;53.182;6.284;2023-04-25T04:58:11;14.88;;;2.85;;
52158;SDS011;38145;53.182;6.284;2023-04-25T05:00:37;17.42;;;3.47;;
52158;SDS011;38145;53.182;6.284;2023-04-25T05:03:03;12.15;;;2.22;;
52158;SDS011;38145;53.182;6.284;2023-04-25T05:05:30;9.02;;;1.83;;
52158;SDS011;38145;53.182;6.284;2023-04-25T05:07:56;17.63;;;3.13;;
52158;SDS011;38145;53.182;6.284;2023-04-25T05:10:22;17.85;;;2.78;;
52158;SDS011;38145;53.182;6.284;2023-04-25T05:12:48;8.73;;;2.13;;
52158;SDS011;38145;53.182;6.284;2023-04-25T05:15:14;10.18;;;1.98;;
52158;SDS011;38145;53.182;6.284;2023-04-25T05:17:41;10.02;;;2.67;;
52158;SDS011;38145;53.182;6.284;2023-04-25T05:20:08;11.88;;;2.33;;
52158;SDS011;38145;53.182;6.284;2023-04-25T05:22:35;14.55;;;2.30;;
52158;SDS011;38145;53.182;6.284;2023-04-25T05:25:02;7.72;;;1.80;;
52158;SDS011;38145;53.182;6.284;2023-04-25T05:27:29;20.25;;;3.42;;
52158;SDS011;38145;53.182;6.284;2023-04-25T05:29:54;10.10;;;2.45;;
52158;SDS011;38145;53.182;6.284;2023-04-25T05:32:21;12.93;;;2.58;;
52158;SDS011;38145;53.182;6.284;2023-04-25T05:34:51;8.23;;;2.47;;
52158;SDS011;38145;53.182;6.284;2023-04-25T05:37:19;12.07;;;2.15;;
52158;SDS011;38145;53.182;6.284;2023-04-25T05:39:46;11.20;;;2.55;;
52158;SDS011;38145;53.182;6.284;2023-04-25T05:42:13;13.90;;;2.15;;
52158;SDS011;38145;53.182;6.284;2023-04-25T05:44:39;12.85;;;2.63;;
52158;SDS011;38145;53.182;6.284;2023-04-25T05:47:04;8.95;;;2.47;;
52158;SDS011;38145;53.182;6.284;2023-04-25T05:49:30;14.68;;;2.20;;
52158;SDS011;38145;53.182;6.284;2023-04-25T05:51:56;13.88;;;2.20;;
52158;SDS011;38145;53.182;6.284;2023-04-25T05:54:22;12.43;;;1.90;;
52158;SDS011;38145;53.182;6.284;2023-04-25T05:56:48;18.70;;;2.08;;
52158;SDS011;38145;53.182;6.284;2023-04-25T05:59:14;14.73;;;3.13;;
52158;SDS011;38145;53.182;6.284;2023-04-25T06:01:40;13.35;;;1.98;;
52158;SDS011;38145;53.182;6.284;2023-04-25T06:04:06;10.43;;;2.30;;
52158;SDS011;38145;53.182;6.284;2023-04-25T06:06:32;9.20;;;2.00;;
52158;SDS011;38145;53.182;6.284;2023-04-25T06:08:58;11.32;;;2.25;;
52158;SDS011;38145;53.182;6.284;2023-04-25T06:11:23;7.57;;;1.55;;
52158;SDS011;38145;53.182;6.284;2023-04-25T06:13:50;13.15;;;1.65;;
52158;SDS011;38145;53.182;6.284;2023-04-25T06:16:15;8.80;;;2.17;;
52158;SDS011;38145;53.182;6.284;2023-04-25T06:18:41;17.58;;;1.73;;
52158;SDS011;38145;53.182;6.284;2023-04-25T06:21:07;7.60;;;1.40;;
52158;SDS011;38145;53.182;6.284;2023-04-25T06:23:33;8.32;;;1.63;;
52158;SDS011;38145;53.182;6.284;2023-04-25T06:25:59;8.77;;;1.40;;
52158;SDS011;38145;53.182;6.284;2023-04-25T06:28:25;5.80;;;1.20;;
52158;SDS011;38145;53.182;6.284;2023-04-25T06:30:51;5.03;;;1.63;;
52158;SDS011;38145;53.182;6.284;2023-04-25T06:33:17;6.55;;;1.10;;
52158;SDS011;38145;53.182;6.284;2023-04-25T06:35:42;5.53;;;0.93;;
52158;SDS011;38145;53.182;6.284;2023-04-25T06:38:08;5.68;;;1.63;;
52158;SDS011;38145;53.182;6.284;2023-04-25T06:40:34;6.75;;;1.15;;
52158;SDS011;38145;53.182;6.284;2023-04-25T06:43:00;6.25;;;1.27;;
52158;SDS011;38145;53.182;6.284;2023-04-25T06:45:26;10.68;;;1.38;;
52158;SDS011;38145;53.182;6.284;2023-04-25T06:47:52;7.13;;;1.60;;
52158;SDS011;38145;53.182;6.284;2023-04-25T06:50:17;9.32;;;1.50;;
52158;SDS011;38145;53.182;6.284;2023-04-25T06:52:43;9.90;;;1.63;;
52158;SDS011;38145;53.182;6.284;2023-04-25T06:55:09;9.55;;;1.63;;
52158;SDS011;38145;53.182;6.284;2023-04-25T06:57:35;11.27;;;1.90;;
52158;SDS011;38145;53.182;6.284;2023-04-25T07:00:01;11.90;;;1.90;;
52158;SDS011;38145;53.182;6.284;2023-04-25T07:02:30;9.23;;;1.85;;
52158;SDS011;38145;53.182;6.284;2023-04-25T07:04:56;12.35;;;1.77;;
52158;SDS011;38145;53.182;6.284;2023-04-25T07:07:25;12.20;;;1.85;;
52158;SDS011;38145;53.182;6.284;2023-04-25T07:09:51;14.80;;;2.47;;
52158;SDS011;38145;53.182;6.284;2023-04-25T07:12:17;8.65;;;1.75;;
52158;SDS011;38145;53.182;6.284;2023-04-25T07:14:43;7.38;;;1.80;;
52158;SDS011;38145;53.182;6.284;2023-04-25T07:17:08;17.77;;;2.90;;
52158;SDS011;38145;53.182;6.284;2023-04-25T07:19:34;9.15;;;1.65;;
52158;SDS011;38145;53.182;6.284;2023-04-25T07:22:02;3.25;;;1.05;;
52158;SDS011;38145;53.182;6.284;2023-04-25T07:24:28;3.03;;;1.02;;
52158;SDS011;38145;53.182;6.284;2023-04-25T07:26:54;2.72;;;0.85;;
52158;SDS011;38145;53.182;6.284;2023-04-25T07:29:19;5.53;;;2.17;;
52158;SDS011;38145;53.182;6.284;2023-04-25T07:31:45;6.07;;;1.20;;
52158;SDS011;38145;53.182;6.284;2023-04-25T07:34:11;4.30;;;1.15;;
52158;SDS011;38145;53.182;6.284;2023-04-25T07:36:37;8.07;;;1.30;;
52158;SDS011;38145;53.182;6.284;2023-04-25T07:39:03;5.57;;;1.00;;
52158;SDS011;38145;53.182;6.284;2023-04-25T07:41:29;5.97;;;1.42;;
52158;SDS011;38145;53.182;6.284;2023-04-25T07:43:55;5.13;;;1.20;;
52158;SDS011;38145;53.182;6.284;2023-04-25T07:46:20;4.93;;;1.13;;
52158;SDS011;38145;53.182;6.284;2023-04-25T07:48:46;5.57;;;1.40;;
52158;SDS011;38145;53.182;6.284;2023-04-25T07:51:12;8.48;;;1.65;;
52158;SDS011;38145;53.182;6.284;2023-04-25T07:53:38;6.90;;;1.40;;
52158;SDS011;38145;53.182;6.284;2023-04-25T07:56:04;8.25;;;1.95;;
52158;SDS011;38145;53.182;6.284;2023-04-25T07:58:30;6.90;;;1.58;;
52158;SDS011;38145;53.182;6.284;2023-04-25T08:00:56;7.93;;;1.33;;
52158;SDS011;38145;53.182;6.284;2023-04-25T08:03:22;7.93;;;1.40;;
52158;SDS011;38145;53.182;6.284;2023-04-25T08:05:48;7.45;;;1.55;;
52158;SDS011;38145;53.182;6.284;2023-04-25T08:08:14;10.68;;;2.03;;
52158;SDS011;38145;53.182;6.284;2023-04-25T08:10:40;7.53;;;1.48;;
52158;SDS011;38145;53.182;6.284;2023-04-25T08:13:07;6.27;;;1.10;;
52158;SDS011;38145;53.182;6.284;2023-04-25T08:15:32;6.03;;;1.48;;
52158;SDS011;38145;53.182;6.284;2023-04-25T08:17:58;10.35;;;1.33;;
52158;SDS011;38145;53.182;6.284;2023-04-25T08:20:24;4.55;;;1.13;;
52158;SDS011;38145;53.182;6.284;2023-04-25T08:22:50;7.90;;;2.33;;
52158;SDS011;38145;53.182;6.284;2023-04-25T08:25:16;7.68;;;1.27;;
52158;SDS011;38145;53.182;6.284;2023-04-25T08:27:42;7.60;;;1.30;;
52158;SDS011;38145;53.182;6.284;2023-04-25T08:30:08;6.50;;;1.10;;
52158;SDS011;38145;53.182;6.284;2023-04-25T08:32:34;5.10;;;1.73;;
52158;SDS011;38145;53.182;6.284;2023-04-25T08:35:03;5.50;;;1.23;;
52158;SDS011;38145;53.182;6.284;2023-04-25T08:37:29;9.63;;;1.40;;
52158;SDS011;38145;53.182;6.284;2023-04-25T08:39:55;6.50;;;1.25;;
52158;SDS011;38145;53.182;6.284;2023-04-25T08:42:21;8.27;;;1.50;;
52158;SDS011;38145;53.182;6.284;2023-04-25T08:44:48;2.20;;;0.98;;
52158;SDS011;38145;53.182;6.284;2023-04-25T08:47:15;8.00;;;1.10;;
52158;SDS011;38145;53.182;6.284;2023-04-25T08:49:43;4.75;;;1.00;;
52158;SDS011;38145;53.182;6.284;2023-04-25T08:52:12;4.93;;;1.02;;
52158;SDS011;38145;53.182;6.284;2023-04-25T08:54:39;4.85;;;1.10;;
52158;SDS011;38145;53.182;6.284;2023-04-25T08:57:09;7.55;;;1.48;;
52158;SDS011;38145;53.182;6.284;2023-04-25T08:59:35;4.32;;;1.23;;
52158;SDS011;38145;53.182;6.284;2023-04-25T09:02:04;5.22;;;1.45;;
52158;SDS011;38145;53.182;6.284;2023-04-25T09:04:30;5.50;;;1.50;;
52158;SDS011;38145;53.182;6.284;2023-04-25T09:06:57;10.90;;;1.43;;
52158;SDS011;38145;53.182;6.284;2023-04-25T09:09:23;6.60;;;1.33;;
52158;SDS011;38145;53.182;6.284;2023-04-25T09:11:49;8.57;;;3.20;;
52158;SDS011;38145;53.182;6.284;2023-04-25T09:14:17;6.28;;;1.38;;
52158;SDS011;38145;53.182;6.284;2023-04-25T09:17:07;7.88;;;2.30;;
52158;SDS011;38145;53.182;6.284;2023-04-25T09:19:34;11.13;;;2.50;;
52158;SDS011;38145;53.182;6.284;2023-04-25T09:22:02;14.30;;;3.60;;
52158;SDS011;38145;53.182;6.284;2023-04-25T09:24:30;8.10;;;2.13;;
52158;SDS011;38145;53.182;6.284;2023-04-25T09:27:03;13.95;;;3.40;;
52158;SDS011;38145;53.182;6.284;2023-04-25T09:29:30;11.50;;;2.22;;
52158;SDS011;38145;53.182;6.284;2023-04-25T09:32:10;11.57;;;2.80;;
52158;SDS011;38145;53.182;6.284;2023-04-25T09:34:39;11.18;;;1.70;;
52158;SDS011;38145;53.182;6.284;2023-04-25T09:37:06;8.60;;;1.80;;
52158;SDS011;38145;53.182;6.284;2023-04-25T09:39:35;6.47;;;1.35;;
52158;SDS011;38145;53.182;6.284;2023-04-25T09:42:03;6.68;;;1.60;;
52158;SDS011;38145;53.182;6.284;2023-04-25T09:44:29;8.70;;;1.77;;
52158;SDS011;38145;53.182;6.284;2023-04-25T09:46:55;10.85;;;2.30;;
52158;SDS011;38145;53.182;6.284;2023-04-25T09:49:22;9.00;;;2.25;;
52158;SDS011;38145;53.182;6.284;2023-04-25T09:51:55;10.75;;;1.65;;
52158;SDS011;38145;53.182;6.284;2023-04-25T09:54:23;9.98;;;1.63;;
52158;SDS011;38145;53.182;6.284;2023-04-25T09:56:51;13.85;;;2.47;;
52158;SDS011;38145;53.182;6.284;2023-04-25T09:59:20;2.67;;;1.15;;
52158;SDS011;38145;53.182;6.284;2023-04-25T10:01:49;10.27;;;2.42;;
52158;SDS011;38145;53.182;6.284;2023-04-25T10:04:18;9.55;;;1.80;;
52158;SDS011;38145;53.182;6.284;2023-04-25T10:06:48;9.18;;;1.58;;
52158;SDS011;38145;53.182;6.284;2023-04-25T10:09:15;9.77;;;1.67;;
52158;SDS011;38145;53.182;6.284;2023-04-25T10:11:44;8.30;;;2.17;;
52158;SDS011;38145;53.182;6.284;2023-04-25T10:14:13;7.63;;;1.77;;
52158;SDS011;38145;53.182;6.284;2023-04-25T10:16:39;11.38;;;1.60;;
52158;SDS011;38145;53.182;6.284;2023-04-25T10:19:07;8.50;;;2.55;;
52158;SDS011;38145;53.182;6.284;2023-04-25T10:21:33;7.15;;;1.45;;
52158;SDS011;38145;53.182;6.284;2023-04-25T10:24:00;10.63;;;1.70;;
52158;SDS011;38145;53.182;6.284;2023-04-25T10:26:26;8.50;;;1.90;;
52158;SDS011;38145;53.182;6.284;2023-04-25T10:28:56;9.95;;;1.92;;
52158;SDS011;38145;53.182;6.284;2023-04-25T10:31:23;12.82;;;1.60;;
52158;SDS011;38145;53.182;6.284;2023-04-25T10:33:50;9.13;;;2.25;;
52158;SDS011;38145;53.182;6.284;2023-04-25T10:36:19;9.30;;;1.80;;
52158;SDS011;38145;53.182;6.284;2023-04-25T10:38:47;9.32;;;1.98;;
52158;SDS011;38145;53.182;6.284;2023-04-25T10:41:15;7.72;;;1.88;;
52158;SDS011;38145;53.182;6.284;2023-04-25T10:43:44;11.00;;;2.55;;
52158;SDS011;38145;53.182;6.284;2023-04-25T10:46:19;8.65;;;2.20;;
52158;SDS011;38145;53.182;6.284;2023-04-25T10:48:52;6.68;;;1.77;;
52158;SDS011;38145;53.182;6.284;2023-04-25T10:51:24;12.07;;;2.22;;
52158;SDS011;38145;53.182;6.284;2023-04-25T10:53:59;8.45;;;2.28;;
52158;SDS011;38145;53.182;6.284;2023-04-25T10:56:27;10.57;;;2.00;;
52158;SDS011;38145;53.182;6.284;2023-04-25T10:59:04;9.55;;;1.52;;
52158;SDS011;38145;53.182;6.284;2023-04-25T11:01:37;10.90;;;1.95;;
52158;SDS011;38145;53.182;6.284;2023-04-25T11:04:31;12.57;;;1.73;;
52158;SDS011;38145;53.182;6.284;2023-04-25T11:09:29;10.57;;;1.55;;
52158;SDS011;38145;53.182;6.284;2023-04-25T11:11:55;5.85;;;1.63;;
52158;SDS011;38145;53.182;6.284;2023-04-25T11:14:23;8.57;;;1.90;;
52158;SDS011;38145;53.182;6.284;2023-04-25T11:16:54;9.23;;;2.05;;
52158;SDS011;38145;53.182;6.284;2023-04-25T11:19:21;5.43;;;1.10;;
52158;SDS011;38145;53.182;6.284;2023-04-25T11:21:47;6.57;;;1.52;;
52158;SDS011;38145;53.182;6.284;2023-04-25T11:24:13;6.40;;;1.58;;
52158;SDS011;38145;53.182;6.284;2023-04-25T11:26:41;1.63;;;1.15;;
52158;SDS011;38145;53.182;6.284;2023-04-25T11:29:08;6.43;;;1.53;;
52158;SDS011;38145;53.182;6.284;2023-04-25T11:31:34;5.18;;;2.15;;
52158;SDS011;38145;53.182;6.284;2023-04-25T11:34:00;7.35;;;1.70;;
52158;SDS011;38145;53.182;6.284;2023-04-25T11:36:26;7.30;;;2.05;;
52158;SDS011;38145;53.182;6.284;2023-04-25T11:38:52;6.28;;;1.83;;
52158;SDS011;38145;53.182;6.284;2023-04-25T11:41:19;6.03;;;1.77;;
52158;SDS011;38145;53.182;6.284;2023-04-25T11:43:45;9.98;;;1.50;;
52158;SDS011;38145;53.182;6.284;2023-04-25T11:46:11;7.22;;;1.58;;
52158;SDS011;38145;53.182;6.284;2023-04-25T11:48:38;8.45;;;1.92;;
52158;SDS011;38145;53.182;6.284;2023-04-25T11:51:05;7.43;;;1.77;;
52158;SDS011;38145;53.182;6.284;2023-04-25T11:53:31;9.18;;;1.65;;
52158;SDS011;38145;53.182;6.284;2023-04-25T11:55:57;8.13;;;2.17;;
52158;SDS011;38145;53.182;6.284;2023-04-25T11:58:23;12.02;;;1.58;;
52158;SDS011;38145;53.182;6.284;2023-04-25T12:00:49;8.27;;;1.85;;
52158;SDS011;38145;53.182;6.284;2023-04-25T12:03:15;10.32;;;1.55;;
52158;SDS011;38145;53.182;6.284;2023-04-25T12:05:43;5.80;;;1.73;;
52158;SDS011;38145;53.182;6.284;2023-04-25T12:08:11;11.55;;;2.53;;
52158;SDS011;38145;53.182;6.284;2023-04-25T12:10:39;7.82;;;1.70;;
52158;SDS011;38145;53.182;6.284;2023-04-25T12:13:22;8.60;;;1.88;;
52158;SDS011;38145;53.182;6.284;2023-04-25T12:15:50;9.25;;;1.92;;
52158;SDS011;38145;53.182;6.284;2023-04-25T12:18:19;6.78;;;1.60;;
52158;SDS011;38145;53.182;6.284;2023-04-25T12:20:46;14.55;;;2.38;;
52158;SDS011;38145;53.182;6.284;2023-04-25T12:23:12;7.68;;;2.15;;
52158;SDS011;38145;53.182;6.284;2023-04-25T12:25:39;7.10;;;1.40;;
52158;SDS011;38145;53.182;6.284;2023-04-25T12:28:13;7.53;;;2.00;;
52158;SDS011;38145;53.182;6.284;2023-04-25T12:30:55;7.60;;;2.33;;
52158;SDS011;38145;53.182;6.284;2023-04-25T12:33:25;9.80;;;1.70;;
52158;SDS011;38145;53.182;6.284;2023-04-25T12:35:53;10.70;;;1.77;;
52158;SDS011;38145;53.182;6.284;2023-04-25T12:38:23;9.57;;;2.80;;
52158;SDS011;38145;53.182;6.284;2023-04-25T12:40:51;10.77;;;1.90;;
52158;SDS011;38145;53.182;6.284;2023-04-25T12:43:17;5.82;;;1.20;;
52158;SDS011;38145;53.182;6.284;2023-04-25T12:45:45;8.50;;;2.00;;
52158;SDS011;38145;53.182;6.284;2023-04-25T12:48:15;5.55;;;1.33;;
52158;SDS011;38145;53.182;6.284;2023-04-25T12:50:42;7.68;;;1.20;;
52158;SDS011;38145;53.182;6.284;2023-04-25T12:53:08;5.13;;;1.20;;
52158;SDS011;38145;53.182;6.284;2023-04-25T12:55:35;6.47;;;1.65;;
52158;SDS011;38145;53.182;6.284;2023-04-25T12:58:01;7.07;;;1.10;;
52158;SDS011;38145;53.182;6.284;2023-04-25T13:00:28;5.67;;;1.70;;
52158;SDS011;38145;53.182;6.284;2023-04-25T13:02:54;7.30;;;1.40;;
52158;SDS011;38145;53.182;6.284;2023-04-25T13:05:21;7.28;;;1.58;;
52158;SDS011;38145;53.182;6.284;2023-04-25T13:07:47;9.65;;;1.88;;
52158;SDS011;38145;53.182;6.284;2023-04-25T13:10:13;9.38;;;1.92;;
52158;SDS011;38145;53.182;6.284;2023-04-25T13:12:39;10.38;;;2.50;;
52158;SDS011;38145;53.182;6.284;2023-04-25T13:15:05;13.27;;;1.98;;
52158;SDS011;38145;53.182;6.284;2023-04-25T13:17:34;11.80;;;2.25;;
52158;SDS011;38145;53.182;6.284;2023-04-25T13:20:00;14.25;;;2.63;;
52158;SDS011;38145;53.182;6.284;2023-04-25T13:22:25;12.45;;;2.28;;
52158;SDS011;38145;53.182;6.284;2023-04-25T13:24:51;8.68;;;1.33;;
52158;SDS011;38145;53.182;6.284;2023-04-25T13:27:17;7.00;;;1.60;;
52158;SDS011;38145;53.182;6.284;2023-04-25T13:29:43;6.90;;;2.22;;
52158;SDS011;38145;53.182;6.284;2023-04-25T13:32:09;9.18;;;2.00;;
52158;SDS011;38145;53.182;6.284;2023-04-25T13:34:35;5.72;;;1.92;;
52158;SDS011;38145;53.182;6.284;2023-04-25T13:37:01;13.35;;;1.95;;
52158;SDS011;38145;53.182;6.284;2023-04-25T13:39:26;9.75;;;1.73;;
52158;SDS011;38145;53.182;6.284;2023-04-25T13:41:52;8.32;;;1.88;;
52158;SDS011;38145;53.182;6.284;2023-04-25T13:44:18;10.82;;;2.03;;
52158;SDS011;38145;53.182;6.284;2023-04-25T13:46:44;8.30;;;1.75;;
52158;SDS011;38145;53.182;6.284;2023-04-25T13:49:11;10.02;;;2.25;;
52158;SDS011;38145;53.182;6.284;2023-04-25T13:51:37;5.90;;;1.70;;
52158;SDS011;38145;53.182;6.284;2023-04-25T13:54:03;6.55;;;2.22;;
52158;SDS011;38145;53.182;6.284;2023-04-25T13:56:29;10.60;;;1.73;;
52158;SDS011;38145;53.182;6.284;2023-04-25T13:58:55;9.82;;;2.20;;
52158;SDS011;38145;53.182;6.284;2023-04-25T14:01:22;14.73;;;2.28;;
52158;SDS011;38145;53.182;6.284;2023-04-25T14:03:47;10.98;;;1.77;;
52158;SDS011;38145;53.182;6.284;2023-04-25T14:06:13;5.90;;;1.60;;
52158;SDS011;38145;53.182;6.284;2023-04-25T14:08:46;7.50;;;1.60;;
52158;SDS011;38145;53.182;6.284;2023-04-25T14:11:12;11.20;;;2.70;;
52158;SDS011;38145;53.182;6.284;2023-04-25T14:13:38;9.73;;;1.38;;
52158;SDS011;38145;53.182;6.284;2023-04-25T14:16:04;10.23;;;2.13;;
52158;SDS011;38145;53.182;6.284;2023-04-25T14:18:30;15.95;;;2.47;;
52158;SDS011;38145;53.182;6.284;2023-04-25T14:20:56;10.95;;;1.90;;
52158;SDS011;38145;53.182;6.284;2023-04-25T14:23:22;12.82;;;1.80;;
52158;SDS011;38145;53.182;6.284;2023-04-25T14:25:48;5.85;;;1.30;;
52158;SDS011;38145;53.182;6.284;2023-04-25T14:28:14;10.27;;;2.30;;
52158;SDS011;38145;53.182;6.284;2023-04-25T14:30:40;5.97;;;1.77;;
52158;SDS011;38145;53.182;6.284;2023-04-25T14:33:06;8.63;;;1.50;;
52158;SDS011;38145;53.182;6.284;2023-04-25T14:35:31;9.35;;;1.92;;
52158;SDS011;38145;53.182;6.284;2023-04-25T14:37:57;3.72;;;1.10;;
52158;SDS011;38145;53.182;6.284;2023-04-25T14:40:23;8.25;;;1.90;;
52158;SDS011;38145;53.182;6.284;2023-04-25T14:42:50;8.93;;;1.83;;
52158;SDS011;38145;53.182;6.284;2023-04-25T14:45:17;8.27;;;1.60;;